Time;durP1;ratioP1;P1;durP2;ratioP2;P2;SDS_P1;SDS_P2;PMS_P1;PMS_P2;Temp;Humidity;BMP_temperature;BMP_pressure;BME280_temperature;BME280_humidity;BME280_pressure;Samples;Min_cycle;Max_cycle;Signal;HPM_P1;HPM_P2
2023/08/31 00:00:11;;;;;;;3.33;2.50;;;13.00;99.90;;;;;;5032602;28;20176;-72
2023/08/31 00:02:39;;;;;;;4.50;2.77;;;12.90;99.90;;;;;;5032338;28;20199;-73
2023/08/31 00:05:05;;;;;;;5.60;3.13;;;12.90;99.90;;;;;;5032224;28;20418;-72
2023/08/31 00:07:31;;;;;;;4.83;3.40;;;12.90;99.90;;;;;;5032210;28;20422;-73
2023/08/31 00:09:56;;;;;;;3.30;2.80;;;12.90;99.90;;;;;;5032403;28;20442;-75
2023/08/31 00:12:22;;;;;;;8.13;4.10;;;12.90;99.90;;;;;;5032104;28;20210;-73
2023/08/31 00:14:49;;;;;;;6.03;2.57;;;12.90;99.90;;;;;;5032139;28;20163;-71
2023/08/31 00:17:15;;;;;;;4.50;2.60;;;12.90;99.90;;;;;;5031933;28;20633;-70
2023/08/31 00:19:40;;;;;;;10.30;2.90;;;12.90;99.90;;;;;;5032132;28;20410;-70
2023/08/31 00:22:06;;;;;;;4.43;2.63;;;12.90;99.90;;;;;;5031144;28;20249;-72
2023/08/31 00:24:31;;;;;;;3.47;2.90;;;12.90;99.90;;;;;;5032135;28;20195;-70
2023/08/31 00:26:57;;;;;;;3.30;2.57;;;12.90;99.90;;;;;;5031791;28;20180;-72
2023/08/31 00:29:25;;;;;;;4.13;2.83;;;12.90;99.90;;;;;;5039102;28;20175;-71
2023/08/31 00:31:53;;;;;;;4.33;3.37;;;12.80;99.90;;;;;;5051925;28;20206;-72
2023/08/31 00:34:19;;;;;;;2.70;2.50;;;12.80;99.90;;;;;;5045130;28;20457;-72
2023/08/31 00:36:44;;;;;;;5.80;3.20;;;12.80;99.90;;;;;;5044971;28;20433;-72
2023/08/31 00:39:10;;;;;;;5.80;2.70;;;12.80;99.90;;;;;;5051666;28;20397;-72
2023/08/31 00:41:36;;;;;;;4.53;2.60;;;12.80;99.90;;;;;;5051949;28;20170;-72
2023/08/31 00:44:04;;;;;;;5.40;3.20;;;12.80;99.90;;;;;;5051806;28;20423;-71
2023/08/31 00:46:31;;;;;;;5.60;2.77;;;12.80;99.90;;;;;;5051526;28;20408;-71
2023/08/31 00:48:57;;;;;;;7.23;3.37;;;12.80;99.90;;;;;;5051946;28;20397;-71
2023/08/31 00:51:23;;;;;;;5.77;2.77;;;12.90;99.90;;;;;;5050668;28;20453;-71
2023/08/31 00:53:53;;;;;;;4.60;3.87;;;12.90;99.90;;;;;;5040091;28;20430;-71
2023/08/31 00:56:19;;;;;;;3.47;3.07;;;12.90;99.90;;;;;;5035992;28;20933;-70
2023/08/31 00:58:44;;;;;;;11.73;2.90;;;13.00;99.90;;;;;;5034676;28;20481;-72
2023/08/31 01:01:36;;;;;;;11.03;3.20;;;13.10;99.90;;;;;;5035912;28;20171;-72
2023/08/31 01:04:09;;;;;;;7.00;3.77;;;13.10;99.90;;;;;;5035846;28;20589;-73
2023/08/31 01:06:56;;;;;;;7.17;3.00;;;13.10;99.90;;;;;;5034112;28;20810;-71
2023/08/31 01:10:00;;;;;;;3.20;2.80;;;13.20;99.90;;;;;;5035646;28;20402;-72
2023/08/31 01:12:40;;;;;;;4.23;3.30;;;13.20;99.90;;;;;;5034173;28;20500;-72
2023/08/31 01:15:10;;;;;;;8.23;3.50;;;13.20;99.90;;;;;;5035296;28;20804;-72
2023/08/31 01:17:45;;;;;;;5.00;2.70;;;13.10;99.90;;;;;;5035601;28;20395;-71
2023/08/31 01:20:15;;;;;;;2.97;2.67;;;13.00;99.90;;;;;;5035600;28;20410;-72
2023/08/31 01:22:55;;;;;;;4.60;2.73;;;12.90;99.90;;;;;;5035385;28;20977;-71
2023/08/31 01:25:21;;;;;;;3.70;2.90;;;12.90;99.90;;;;;;5035164;28;20405;-72
2023/08/31 01:27:47;;;;;;;3.63;2.77;;;12.90;99.90;;;;;;5035428;28;20406;-72
2023/08/31 01:30:12;;;;;;;3.20;2.90;;;12.70;99.90;;;;;;5048027;28;20485;-72
2023/08/31 01:32:46;;;;;;;5.90;2.90;;;12.70;99.90;;;;;;5055186;28;20452;-72
2023/08/31 01:35:16;;;;;;;7.43;3.40;;;12.60;99.90;;;;;;5045124;28;20174;-71
2023/08/31 01:37:52;;;;;;;5.80;3.80;;;12.60;99.90;;;;;;5047231;28;20427;-72
2023/08/31 01:40:27;;;;;;;4.77;3.53;;;12.50;99.90;;;;;;5054971;28;20427;-71
2023/08/31 01:42:54;;;;;;;4.70;3.10;;;12.40;99.90;;;;;;5055089;28;20829;-71
2023/08/31 01:45:22;;;;;;;4.03;3.60;;;12.40;99.90;;;;;;5054615;28;20408;-72
2023/08/31 01:47:47;;;;;;;3.57;2.73;;;12.40;99.90;;;;;;5053681;28;20413;-71
2023/08/31 01:50:13;;;;;;;3.23;2.93;;;12.40;99.90;;;;;;5054813;28;20983;-72
2023/08/31 01:52:39;;;;;;;4.40;2.77;;;12.30;99.90;;;;;;5050797;28;20556;-72
2023/08/31 01:55:05;;;;;;;7.00;4.70;;;12.30;99.90;;;;;;5034744;28;20246;-72
2023/08/31 01:57:32;;;;;;;4.90;2.83;;;12.30;99.90;;;;;;5034939;28;20160;-72
2023/08/31 01:59:57;;;;;;;5.37;2.70;;;12.30;99.90;;;;;;5035098;28;20923;-72
2023/08/31 02:02:23;;;;;;;5.63;2.83;;;12.30;99.90;;;;;;5033325;28;20430;-72
2023/08/31 02:04:50;;;;;;;4.50;3.23;;;12.20;99.90;;;;;;5033293;28;20266;-71
2023/08/31 02:07:15;;;;;;;9.03;2.90;;;12.20;99.90;;;;;;5034272;28;20180;-71
2023/08/31 02:09:41;;;;;;;5.50;2.80;;;12.20;99.90;;;;;;5034523;28;20774;-72
2023/08/31 02:12:09;;;;;;;12.70;6.00;;;12.20;99.90;;;;;;5034404;28;20222;-72
2023/08/31 02:14:35;;;;;;;3.63;2.77;;;12.20;99.90;;;;;;5033143;28;20411;-72
2023/08/31 02:17:01;;;;;;;4.60;2.37;;;12.20;99.90;;;;;;5034059;28;20402;-70
2023/08/31 02:19:26;;;;;;;4.20;2.90;;;12.30;99.90;;;;;;5034515;28;20407;-72
2023/08/31 02:21:52;;;;;;;2.40;2.20;;;12.30;99.90;;;;;;5034261;28;20174;-72
2023/08/31 02:24:17;;;;;;;2.23;1.97;;;12.30;99.90;;;;;;5034375;28;20176;-71
2023/08/31 02:26:43;;;;;;;2.73;2.23;;;12.30;99.90;;;;;;5033969;28;20176;-72
2023/08/31 02:29:08;;;;;;;6.73;1.97;;;12.30;99.90;;;;;;5038021;28;20167;-73
2023/08/31 02:31:34;;;;;;;4.37;2.27;;;12.30;99.90;;;;;;5054050;28;20197;-72
2023/08/31 02:33:59;;;;;;;5.30;3.07;;;12.20;99.90;;;;;;5050146;28;20198;-71
2023/08/31 02:36:25;;;;;;;5.43;2.33;;;12.20;99.90;;;;;;5042589;28;20186;-71
2023/08/31 02:38:50;;;;;;;3.37;2.70;;;12.20;99.90;;;;;;5052812;28;20174;-72
2023/08/31 02:41:17;;;;;;;4.47;3.03;;;12.20;99.90;;;;;;5053963;28;20201;-72
2023/08/31 02:43:42;;;;;;;3.53;2.63;;;12.20;99.90;;;;;;5053846;28;20190;-71
2023/08/31 02:46:08;;;;;;;4.30;3.73;;;12.10;99.90;;;;;;5052322;28;20776;-72
2023/08/31 02:48:33;;;;;;;3.20;2.90;;;12.20;99.90;;;;;;5052531;28;20244;-71
2023/08/31 02:51:02;;;;;;;3.00;2.70;;;12.10;99.90;;;;;;5053752;28;20253;-72
2023/08/31 02:53:30;;;;;;;6.10;2.90;;;12.10;99.90;;;;;;5043467;28;20217;-72
2023/08/31 02:55:56;;;;;;;3.07;2.77;;;12.10;99.90;;;;;;5033482;28;20406;-71
2023/08/31 02:58:22;;;;;;;3.03;2.30;;;12.10;99.90;;;;;;5033788;28;20807;-72
2023/08/31 03:00:48;;;;;;;5.60;4.07;;;12.10;99.90;;;;;;5033620;28;20449;-71
2023/08/31 03:03:17;;;;;;;3.30;3.00;;;12.10;99.90;;;;;;5033567;28;20219;-72
2023/08/31 03:05:43;;;;;;;6.53;3.23;;;12.10;99.90;;;;;;5032030;28;20496;-71
2023/08/31 03:08:09;;;;;;;4.40;2.53;;;12.10;99.90;;;;;;5033307;28;20516;-71
2023/08/31 03:10:35;;;;;;;6.70;3.93;;;12.10;99.90;;;;;;5032144;28;20546;-73
2023/08/31 03:13:01;;;;;;;4.53;2.67;;;12.00;99.90;;;;;;5033309;28;20190;-72
2023/08/31 03:15:26;;;;;;;7.50;3.40;;;12.00;99.90;;;;;;5032452;28;20760;-71
2023/08/31 03:17:52;;;;;;;8.00;2.60;;;12.00;99.90;;;;;;5033378;28;20168;-72
2023/08/31 03:20:18;;;;;;;4.60;2.90;;;12.00;99.90;;;;;;5033301;28;20168;-72
2023/08/31 03:22:43;;;;;;;3.47;2.90;;;12.00;99.90;;;;;;5033201;28;20193;-72
2023/08/31 03:25:09;;;;;;;4.00;2.90;;;12.10;99.90;;;;;;5032876;28;20168;-72
2023/08/31 03:27:35;;;;;;;3.30;3.00;;;12.10;99.90;;;;;;5033101;28;20663;-72
2023/08/31 03:30:01;;;;;;;6.60;3.00;;;12.20;99.90;;;;;;5042621;28;20183;-71
2023/08/31 03:32:27;;;;;;;2.63;2.40;;;12.40;99.90;;;;;;5052645;28;20506;-71
2023/08/31 03:34:52;;;;;;;5.67;2.90;;;12.60;99.90;;;;;;5045222;28;20462;-71
2023/08/31 03:37:19;;;;;;;5.60;3.43;;;12.60;99.90;;;;;;5047412;28;20171;-72
2023/08/31 03:39:50;;;;;;;4.40;3.10;;;12.70;99.90;;;;;;5052669;28;20163;-73
2023/08/31 03:42:15;;;;;;;3.40;3.07;;;12.70;99.90;;;;;;5052601;28;20433;-72
2023/08/31 03:44:41;;;;;;;3.27;2.97;;;12.80;99.90;;;;;;5052598;28;20402;-71
2023/08/31 03:47:07;;;;;;;5.93;2.67;;;12.80;99.90;;;;;;5052463;28;20186;-71
2023/08/31 03:49:33;;;;;;;2.90;2.70;;;12.90;99.90;;;;;;5052857;28;20182;-72
2023/08/31 03:51:59;;;;;;;4.47;2.33;;;12.90;99.90;;;;;;5052438;28;20201;-72
2023/08/31 03:54:24;;;;;;;4.40;2.87;;;12.80;99.90;;;;;;5035285;28;20935;-72
2023/08/31 03:56:50;;;;;;;3.37;3.07;;;12.80;99.90;;;;;;5032387;28;20247;-72
2023/08/31 03:59:16;;;;;;;6.40;3.70;;;12.80;99.90;;;;;;5031052;28;20226;-71
2023/08/31 04:01:41;;;;;;;5.73;2.90;;;12.70;99.90;;;;;;5032449;28;20693;-71
2023/08/31 04:04:07;;;;;;;6.43;2.97;;;12.70;99.90;;;;;;5032378;28;20522;-71
2023/08/31 04:06:33;;;;;;;9.33;4.70;;;12.70;99.90;;;;;;5032104;28;20198;-73
2023/08/31 04:08:58;;;;;;;5.07;3.50;;;12.50;99.90;;;;;;5032642;28;20254;-72
2023/08/31 04:11:26;;;;;;;3.53;3.13;;;12.50;99.90;;;;;;5032393;28;20191;-72
2023/08/31 04:13:51;;;;;;;4.97;3.40;;;12.40;99.90;;;;;;5031004;28;20188;-71
2023/08/31 04:16:17;;;;;;;4.63;3.40;;;12.40;99.90;;;;;;5032035;28;20908;-72
2023/08/31 04:18:42;;;;;;;6.73;4.17;;;12.30;99.90;;;;;;5032377;28;20164;-72
2023/08/31 04:21:08;;;;;;;6.90;3.70;;;12.20;99.90;;;;;;5032177;28;20636;-72
2023/08/31 04:23:34;;;;;;;3.37;3.07;;;12.20;99.90;;;;;;5032267;28;20656;-71
2023/08/31 04:26:00;;;;;;;3.47;2.97;;;12.20;99.90;;;;;;5031928;28;20406;-72
2023/08/31 04:28:25;;;;;;;3.30;2.90;;;12.10;99.90;;;;;;5029681;28;20182;-72
2023/08/31 04:30:51;;;;;;;5.97;3.67;;;12.10;99.90;;;;;;5042411;28;20293;-70
2023/08/31 04:33:17;;;;;;;5.60;3.23;;;12.00;99.90;;;;;;5048729;28;20187;-73
2023/08/31 04:35:43;;;;;;;3.63;3.30;;;12.00;99.90;;;;;;5044603;28;20171;-73
2023/08/31 04:38:09;;;;;;;5.87;4.03;;;12.00;99.90;;;;;;5043783;28;20773;-72
2023/08/31 04:40:36;;;;;;;3.73;3.30;;;11.90;99.90;;;;;;5051592;28;20652;-72
2023/08/31 04:43:02;;;;;;;3.90;3.50;;;12.00;99.90;;;;;;5051922;28;20520;-71
2023/08/31 04:45:28;;;;;;;4.73;4.03;;;12.00;99.90;;;;;;5051508;28;20783;-73
2023/08/31 04:47:54;;;;;;;4.30;3.77;;;11.90;99.90;;;;;;5032043;28;20416;-73
2023/08/31 04:50:19;;;;;;;4.13;3.30;;;11.90;99.90;;;;;;5031753;28;20206;-72
2023/08/31 04:52:45;;;;;;;6.50;3.57;;;11.90;99.90;;;;;;5031816;28;20188;-73
2023/08/31 04:55:13;;;;;;;4.90;3.53;;;11.90;99.90;;;;;;5031671;28;20167;-71
2023/08/31 04:57:39;;;;;;;6.10;2.97;;;11.90;99.90;;;;;;5030477;28;20182;-72
2023/08/31 05:00:07;;;;;;;9.70;3.20;;;12.00;99.90;;;;;;5031674;28;20436;-72
2023/08/31 05:02:32;;;;;;;5.67;4.00;;;11.90;99.90;;;;;;5031513;28;20668;-70
2023/08/31 05:04:58;;;;;;;8.27;3.87;;;11.90;99.90;;;;;;5045704;28;20516;-72
2023/08/31 05:07:23;;;;;;;7.27;4.27;;;12.00;99.90;;;;;;5046380;28;20191;-71
2023/08/31 05:09:50;;;;;;;3.83;3.23;;;12.00;99.90;;;;;;5042571;28;20203;-73
2023/08/31 05:12:17;;;;;;;4.43;3.90;;;12.00;99.90;;;;;;5050514;28;20198;-72
2023/08/31 05:14:43;;;;;;;5.40;3.63;;;12.00;99.90;;;;;;5051371;28;20417;-70
2023/08/31 05:17:08;;;;;;;4.53;3.23;;;12.00;99.90;;;;;;5051351;28;20886;-72
2023/08/31 05:19:34;;;;;;;5.70;3.30;;;12.00;99.90;;;;;;5051572;28;20167;-71
2023/08/31 05:21:59;;;;;;;7.07;3.53;;;12.00;99.90;;;;;;5051313;28;20175;-72
2023/08/31 05:24:25;;;;;;;7.23;3.53;;;12.10;99.90;;;;;;5051524;28;20240;-72
2023/08/31 05:26:51;;;;;;;8.80;4.23;;;12.10;99.90;;;;;;5051010;28;20182;-72
2023/08/31 05:29:16;;;;;;;5.90;3.07;;;12.10;99.90;;;;;;5051512;28;20636;-71
2023/08/31 05:31:42;;;;;;;6.00;3.57;;;12.20;99.90;;;;;;5051420;28;20235;-72
2023/08/31 05:34:10;;;;;;;5.17;3.57;;;12.30;99.90;;;;;;5048996;28;20191;-71
2023/08/31 05:36:35;;;;;;;6.07;3.47;;;12.40;99.90;;;;;;5042917;28;20214;-72
2023/08/31 05:39:01;;;;;;;4.30;3.60;;;12.50;99.90;;;;;;5047567;28;21012;-72
2023/08/31 05:41:27;;;;;;;4.30;3.03;;;12.70;99.90;;;;;;5055131;28;20241;-73
2023/08/31 05:43:53;;;;;;;7.53;3.00;;;12.90;99.90;;;;;;5053628;28;20958;-72
2023/08/31 05:46:19;;;;;;;10.70;3.83;;;13.00;99.90;;;;;;5054691;28;20179;-71
2023/08/31 05:48:44;;;;;;;3.87;2.97;;;13.30;99.90;;;;;;5054991;28;20170;-71
2023/08/31 05:51:10;;;;;;;4.17;2.90;;;13.50;99.90;;;;;;5045650;28;20831;-73
2023/08/31 05:53:35;;;;;;;5.50;2.43;;;13.80;99.90;;;;;;5051962;28;20600;-69
2023/08/31 05:56:04;;;;;;;6.13;2.43;;;14.10;99.90;;;;;;5054415;28;20171;-70
2023/08/31 05:58:31;;;;;;;5.90;3.80;;;14.50;99.90;;;;;;5054633;28;20632;-71
2023/08/31 06:00:57;;;;;;;3.00;2.30;;;14.90;99.90;;;;;;5054822;28;20409;-70
2023/08/31 06:03:22;;;;;;;2.80;2.10;;;15.40;99.90;;;;;;5054556;28;20502;-70
2023/08/31 06:05:48;;;;;;;2.60;2.37;;;15.80;99.90;;;;;;5054358;28;20171;-71
2023/08/31 06:08:13;;;;;;;3.70;2.37;;;16.30;99.90;;;;;;5049668;28;20718;-70
2023/08/31 06:10:39;;;;;;;2.47;2.27;;;16.60;99.90;;;;;;5034405;28;20538;-70
2023/08/31 06:13:04;;;;;;;2.03;1.80;;;17.20;99.90;;;;;;5034400;28;20681;-71
2023/08/31 06:15:30;;;;;;;3.80;2.10;;;17.80;99.90;;;;;;5034085;28;20644;-72
2023/08/31 06:17:55;;;;;;;2.20;2.00;;;18.60;99.90;;;;;;5034406;28;20728;-72
2023/08/31 06:20:22;;;;;;;2.73;2.30;;;19.10;99.90;;;;;;5034396;28;20168;-71
2023/08/31 06:22:47;;;;;;;6.30;2.33;;;19.60;99.90;;;;;;5034393;28;20563;-72
2023/08/31 06:25:15;;;;;;;4.00;2.33;;;20.40;99.90;;;;;;5039195;28;20417;-71
2023/08/31 06:27:42;;;;;;;2.00;1.80;;;20.80;99.90;;;;;;5054076;28;20162;-71
2023/08/31 06:30:11;;;;;;;3.60;2.30;;;21.20;99.90;;;;;;5054121;28;20530;-71
2023/08/31 06:32:37;;;;;;;6.60;2.20;;;21.50;99.90;;;;;;5054068;28;20857;-72
2023/08/31 06:35:03;;;;;;;3.73;1.20;;;22.10;99.90;;;;;;5048028;28;20425;-73
2023/08/31 06:37:28;;;;;;;2.17;1.80;;;22.90;99.90;;;;;;5045516;28;20217;-73
2023/08/31 06:39:54;;;;;;;2.23;1.30;;;23.90;99.90;;;;;;5053784;28;20413;-70
2023/08/31 06:42:19;;;;;;;2.80;2.07;;;24.50;97.50;;;;;;5053776;28;20195;-72
2023/08/31 06:44:45;;;;;;;1.90;1.60;;;24.10;91.60;;;;;;5054005;28;20174;-71
2023/08/31 06:47:11;;;;;;;3.27;1.70;;;23.10;89.00;;;;;;5053527;28;20274;-70
2023/08/31 06:49:36;;;;;;;4.67;1.80;;;22.40;97.50;;;;;;5052912;28;20477;-71
2023/08/31 06:52:03;;;;;;;2.40;1.90;;;21.30;99.90;;;;;;5053651;28;20568;-71
2023/08/31 06:54:28;;;;;;;2.63;1.60;;;20.30;99.90;;;;;;5049570;28;20548;-71
2023/08/31 06:56:54;;;;;;;2.90;1.50;;;19.70;99.90;;;;;;5042534;28;20425;-70
2023/08/31 06:59:19;;;;;;;5.70;1.80;;;19.10;99.90;;;;;;5053447;28;20232;-69
2023/08/31 07:01:45;;;;;;;1.90;1.60;;;18.90;99.90;;;;;;5053379;28;20179;-70
2023/08/31 07:04:10;;;;;;;6.43;2.10;;;18.90;99.90;;;;;;5053704;28;20288;-70
2023/08/31 07:06:36;;;;;;;2.50;1.40;;;19.20;99.90;;;;;;5053125;28;20236;-70
2023/08/31 07:09:05;;;;;;;2.57;1.60;;;19.80;99.90;;;;;;5053546;28;20167;-71
2023/08/31 07:11:30;;;;;;;6.63;1.60;;;20.90;99.90;;;;;;5053364;28;20285;-71
2023/08/31 07:13:57;;;;;;;3.27;1.40;;;22.00;99.90;;;;;;5053405;28;20508;-70
2023/08/31 07:16:23;;;;;;;2.33;1.40;;;23.40;99.90;;;;;;5052989;28;20168;-70
2023/08/31 07:18:48;;;;;;;2.70;1.60;;;24.40;99.10;;;;;;5053341;28;20417;-71
2023/08/31 07:21:14;;;;;;;3.30;1.67;;;25.50;92.10;;;;;;5049278;28;20194;-71
2023/08/31 07:23:39;;;;;;;2.57;1.60;;;26.00;84.30;;;;;;5044561;28;20198;-70
2023/08/31 07:26:05;;;;;;;5.60;1.63;;;26.60;75.80;;;;;;5052839;28;20540;-70
2023/08/31 07:28:31;;;;;;;4.33;2.00;;;27.30;72.30;;;;;;5053165;28;20241;-71
2023/08/31 07:31:06;;;;;;;2.80;1.90;;;28.20;67.90;;;;;;5053000;28;20203;-71
2023/08/31 07:33:33;;;;;;;3.70;2.93;;;27.40;60.60;;;;;;5052872;28;20420;-71
2023/08/31 07:35:59;;;;;;;4.00;2.10;;;26.70;61.50;;;;;;5045766;28;20946;-72
2023/08/31 07:38:25;;;;;;;4.13;2.00;;;26.30;63.20;;;;;;5052886;28;20405;-72
2023/08/31 07:40:51;;;;;;;1.53;1.20;;;25.90;63.70;;;;;;5052844;28;20413;-71
2023/08/31 07:43:17;;;;;;;2.80;1.60;;;25.50;67.20;;;;;;5052766;28;20933;-71
2023/08/31 07:45:42;;;;;;;1.90;1.30;;;24.80;66.00;;;;;;5045178;28;20174;-71
2023/08/31 07:48:08;;;;;;;2.07;1.87;;;24.20;67.70;;;;;;5044085;28;20173;-71
2023/08/31 07:50:34;;;;;;;2.53;1.73;;;24.00;73.10;;;;;;5043443;28;20196;-71
2023/08/31 07:53:00;;;;;;;3.20;1.97;;;23.70;75.30;;;;;;5045424;28;20187;-71
2023/08/31 07:55:25;;;;;;;2.73;1.77;;;23.30;77.30;;;;;;5051420;28;20825;-70
2023/08/31 07:57:51;;;;;;;5.10;2.20;;;22.60;77.80;;;;;;5051301;28;20232;-71
2023/08/31 08:00:17;;;;;;;2.53;1.70;;;22.10;84.40;;;;;;5052572;28;20209;-72
2023/08/31 08:02:44;;;;;;;3.87;1.70;;;21.50;90.40;;;;;;5052057;28;20197;-71
2023/08/31 08:05:10;;;;;;;1.63;1.53;;;21.40;96.40;;;;;;5044572;28;20457;-70
2023/08/31 08:07:35;;;;;;;2.57;1.10;;;21.10;99.90;;;;;;5049607;28;20440;-71
2023/08/31 08:10:01;;;;;;;6.10;1.83;;;20.90;99.90;;;;;;5052231;28;20190;-70
2023/08/31 08:12:26;;;;;;;1.93;1.53;;;21.00;99.90;;;;;;5052352;28;20708;-71
2023/08/31 08:14:52;;;;;;;4.33;1.60;;;21.30;99.90;;;;;;5052190;28;20174;-71
2023/08/31 08:17:18;;;;;;;6.80;2.30;;;21.90;99.90;;;;;;5052020;28;20167;-72
2023/08/31 08:19:43;;;;;;;1.77;1.57;;;22.50;99.90;;;;;;5052302;28;20167;-71
2023/08/31 08:22:09;;;;;;;2.30;1.20;;;22.70;99.90;;;;;;5052089;28;20270;-71
2023/08/31 08:24:34;;;;;;;5.50;1.93;;;23.90;99.90;;;;;;5052105;28;20301;-72
2023/08/31 08:27:00;;;;;;;1.83;1.33;;;25.50;95.80;;;;;;5051856;28;20178;-71
2023/08/31 08:29:25;;;;;;;1.57;1.47;;;26.60;78.80;;;;;;5052125;28;20175;-72
2023/08/31 08:31:51;;;;;;;1.77;1.40;;;27.90;72.00;;;;;;5051898;28;20198;-72
2023/08/31 08:34:16;;;;;;;4.57;1.70;;;29.30;66.50;;;;;;5050175;28;20547;-72
2023/08/31 08:36:42;;;;;;;2.50;1.70;;;31.60;59.90;;;;;;5033471;28;20183;-71
2023/08/31 08:39:07;;;;;;;3.73;1.87;;;33.10;51.30;;;;;;5051810;28;20240;-71
2023/08/31 08:41:35;;;;;;;2.03;1.60;;;34.40;46.60;;;;;;5040092;28;20194;-70
2023/08/31 08:44:05;;;;;;;3.10;1.83;;;35.40;44.40;;;;;;5039874;28;20217;-71
2023/08/31 08:46:32;;;;;;;2.00;1.50;;;36.00;41.50;;;;;;5046776;28;20419;-71
2023/08/31 08:49:02;;;;;;;2.83;1.80;;;36.50;39.50;;;;;;5049442;28;20425;-71
2023/08/31 08:51:30;;;;;;;3.63;2.03;;;38.00;39.70;;;;;;5051484;28;20890;-72
2023/08/31 08:53:58;;;;;;;2.47;1.47;;;39.60;39.60;;;;;;5051777;28;20922;-71
2023/08/31 08:56:24;;;;;;;2.93;1.63;;;41.00;36.60;;;;;;5051579;28;20829;-72
2023/08/31 08:58:49;;;;;;;2.63;1.90;;;42.40;34.90;;;;;;5051681;28;20401;-72
2023/08/31 09:01:17;;;;;;;2.63;1.73;;;43.60;34.00;;;;;;5051738;28;20175;-71
2023/08/31 09:03:43;;;;;;;2.50;1.83;;;42.40;29.10;;;;;;5051650;28;20255;-71
2023/08/31 09:06:10;;;;;;;2.17;1.30;;;40.50;30.00;;;;;;5051364;28;20433;-73
2023/08/31 09:08:37;;;;;;;5.13;2.10;;;40.50;30.90;;;;;;5051704;28;20167;-72
2023/08/31 09:11:02;;;;;;;2.20;2.00;;;41.40;31.90;;;;;;5051631;28;20442;-72
2023/08/31 09:13:29;;;;;;;3.07;2.00;;;42.50;31.80;;;;;;5052989;28;20919;-73
2023/08/31 09:15:56;;;;;;;4.47;2.07;;;43.30;30.00;;;;;;5055325;28;20733;-73
2023/08/31 09:18:33;;;;;;;1.73;1.53;;;44.20;29.50;;;;;;5055558;28;20405;-72
2023/08/31 09:21:00;;;;;;;2.20;1.80;;;44.50;29.00;;;;;;5055543;28;20401;-71
2023/08/31 09:23:26;;;;;;;2.50;2.00;;;43.70;27.50;;;;;;5055415;28;20439;-71
2023/08/31 09:25:53;;;;;;;2.00;1.80;;;44.30;29.00;;;;;;5055155;28;20886;-72
2023/08/31 09:28:23;;;;;;;2.67;2.30;;;45.20;27.90;;;;;;5055321;28;20171;-73
2023/08/31 09:30:50;;;;;;;2.60;1.70;;;45.80;27.20;;;;;;5053977;28;20427;-73
2023/08/31 09:33:17;;;;;;;2.83;2.30;;;46.80;27.80;;;;;;5055216;28;20417;-72
2023/08/31 09:35:55;;;;;;;4.87;1.90;;;46.90;26.60;;;;;;5055001;28;20409;-73
2023/08/31 09:38:21;;;;;;;2.87;1.80;;;46.50;25.50;;;;;;5055211;28;20411;-73
2023/08/31 09:40:46;;;;;;;2.13;1.80;;;45.70;25.60;;;;;;5055045;28;20447;-71
2023/08/31 09:43:18;;;;;;;3.20;2.03;;;45.00;26.10;;;;;;5054982;28;20233;-71
2023/08/31 09:45:44;;;;;;;4.60;2.33;;;45.50;26.80;;;;;;5054798;28;20394;-71
2023/08/31 09:48:09;;;;;;;3.10;2.20;;;44.60;25.80;;;;;;5055093;28;20504;-71
2023/08/31 09:50:37;;;;;;;3.23;2.17;;;44.90;26.50;;;;;;5055012;28;20594;-71
2023/08/31 09:53:04;;;;;;;5.10;2.10;;;45.30;26.20;;;;;;5050027;28;20195;-70
2023/08/31 09:55:34;;;;;;;1.90;1.70;;;46.30;25.80;;;;;;5053850;28;20420;-71
2023/08/31 09:58:01;;;;;;;2.10;2.00;;;45.90;24.70;;;;;;5054804;28;20405;-70
2023/08/31 10:00:29;;;;;;;3.97;2.20;;;44.40;25.10;;;;;;5053496;28;20423;-70
2023/08/31 10:02:56;;;;;;;6.10;2.47;;;43.30;25.30;;;;;;5053365;28;20472;-71
2023/08/31 10:05:23;;;;;;;4.17;1.83;;;42.10;26.10;;;;;;5054394;28;20960;-71
2023/08/31 10:07:50;;;;;;;5.90;1.97;;;41.90;26.90;;;;;;5054924;28;20455;-71
2023/08/31 10:10:16;;;;;;;3.80;2.37;;;42.10;27.40;;;;;;5053320;28;20460;-70
2023/08/31 10:12:44;;;;;;;2.80;2.10;;;42.30;26.50;;;;;;5054440;28;20411;-71
2023/08/31 10:15:10;;;;;;;2.60;2.00;;;42.50;27.60;;;;;;5054268;28;20478;-70
2023/08/31 10:17:36;;;;;;;2.40;1.97;;;43.00;25.70;;;;;;5053260;28;20409;-70
2023/08/31 10:20:02;;;;;;;1.73;1.50;;;43.10;25.50;;;;;;5054354;28;20425;-70
2023/08/31 10:22:29;;;;;;;2.40;1.90;;;43.30;25.90;;;;;;5054216;28;20399;-70
2023/08/31 10:25:00;;;;;;;2.90;2.70;;;43.00;26.00;;;;;;5052694;28;20970;-71
2023/08/31 10:27:25;;;;;;;3.53;1.73;;;43.10;26.20;;;;;;5054239;28;20401;-70
2023/08/31 10:29:51;;;;;;;1.90;1.70;;;43.00;25.60;;;;;;5054145;28;20964;-71
2023/08/31 10:32:21;;;;;;;2.30;2.10;;;43.00;25.70;;;;;;5054110;28;20202;-71
2023/08/31 10:35:05;;;;;;;3.37;1.73;;;42.80;25.50;;;;;;5053652;28;20166;-71
2023/08/31 10:37:31;;;;;;;2.80;1.83;;;42.20;26.30;;;;;;5054039;28;20379;-70
2023/08/31 10:40:12;;;;;;;2.40;1.80;;;40.30;26.10;;;;;;5053947;28;20406;-70
2023/08/31 10:42:45;;;;;;;2.30;1.97;;;40.10;26.50;;;;;;5053906;28;20191;-70
2023/08/31 10:45:11;;;;;;;3.80;2.23;;;39.90;27.10;;;;;;5053732;28;20505;-69
2023/08/31 10:47:38;;;;;;;1.70;1.60;;;38.40;27.30;;;;;;5053933;28;20480;-72
2023/08/31 10:50:19;;;;;;;2.33;1.60;;;36.10;28.80;;;;;;5053925;28;20572;-72
2023/08/31 10:52:45;;;;;;;1.60;1.30;;;36.00;31.30;;;;;;5053817;28;20429;-69
2023/08/31 10:55:11;;;;;;;2.47;1.70;;;35.50;31.40;;;;;;5052308;28;20830;-69
2023/08/31 10:57:37;;;;;;;2.63;2.20;;;37.20;33.50;;;;;;5053686;28;20179;-72
2023/08/31 11:00:04;;;;;;;4.77;2.70;;;39.70;31.60;;;;;;5035783;28;20221;-70
2023/08/31 11:02:34;;;;;;;2.90;1.60;;;40.80;30.00;;;;;;5044957;28;20606;-71
2023/08/31 11:05:07;;;;;;;3.03;2.10;;;43.30;29.60;;;;;;5045120;28;20401;-72
2023/08/31 11:07:35;;;;;;;2.30;2.10;;;46.20;28.10;;;;;;5038881;28;20437;-71
2023/08/31 11:10:23;;;;;;;3.03;2.73;;;48.70;25.80;;;;;;5044960;28;20421;-71
2023/08/31 11:12:52;;;;;;;3.40;2.37;;;49.50;24.40;;;;;;5044933;28;20413;-70
2023/08/31 11:15:19;;;;;;;2.37;2.17;;;47.90;23.90;;;;;;5052989;28;20416;-71
2023/08/31 11:17:46;;;;;;;3.23;2.17;;;46.40;24.30;;;;;;5053177;28;20391;-70
2023/08/31 11:20:20;;;;;;;6.10;2.13;;;44.90;24.70;;;;;;5053272;28;20548;-70
2023/08/31 11:22:49;;;;;;;2.43;2.10;;;43.00;24.70;;;;;;5053174;28;20417;-70
2023/08/31 11:25:16;;;;;;;5.37;1.90;;;40.60;25.40;;;;;;5052846;28;20413;-70
2023/08/31 11:27:43;;;;;;;2.07;1.70;;;37.70;26.20;;;;;;5053290;28;20428;-70
2023/08/31 11:30:17;;;;;;;2.97;2.00;;;35.90;28.40;;;;;;5049547;28;20865;-70
2023/08/31 11:32:51;;;;;;;4.10;1.90;;;33.50;29.70;;;;;;5050593;28;20906;-70
2023/08/31 11:35:19;;;;;;;2.67;2.20;;;30.90;32.30;;;;;;5044155;28;20419;-71
2023/08/31 11:37:50;;;;;;;3.10;1.70;;;28.70;36.20;;;;;;5052547;28;20417;-71
2023/08/31 11:40:16;;;;;;;2.80;1.90;;;27.20;40.20;;;;;;5052907;28;20457;-70
2023/08/31 11:42:42;;;;;;;2.63;2.10;;;26.50;43.00;;;;;;5052822;28;20428;-71
2023/08/31 11:45:09;;;;;;;3.20;2.20;;;26.80;43.30;;;;;;5052518;28;20634;-71
2023/08/31 11:47:36;;;;;;;2.90;2.60;;;28.10;42.00;;;;;;5052804;28;20171;-71
2023/08/31 11:50:04;;;;;;;2.43;2.17;;;28.40;40.50;;;;;;5052594;28;20424;-70
2023/08/31 11:52:30;;;;;;;3.03;2.20;;;28.00;40.50;;;;;;5052639;28;20425;-70
2023/08/31 11:54:56;;;;;;;6.00;2.17;;;27.10;40.90;;;;;;5052331;28;20413;-70
2023/08/31 11:57:26;;;;;;;1.77;1.40;;;26.10;42.00;;;;;;5052647;28;20459;-71
2023/08/31 11:59:55;;;;;;;2.23;1.43;;;25.40;43.50;;;;;;5052531;28;20167;-70
2023/08/31 12:02:20;;;;;;;2.13;1.40;;;24.90;45.00;;;;;;5052537;28;20524;-70
2023/08/31 12:04:46;;;;;;;3.93;1.70;;;24.80;46.30;;;;;;5052313;28;20942;-70
2023/08/31 12:07:16;;;;;;;1.97;1.20;;;27.30;47.40;;;;;;5051116;28;20659;-71
2023/08/31 12:09:44;;;;;;;4.00;2.00;;;29.90;42.90;;;;;;5051090;28;20416;-70
2023/08/31 12:12:10;;;;;;;2.13;1.93;;;29.80;40.30;;;;;;5052349;28;20930;-71
2023/08/31 12:14:39;;;;;;;2.00;1.60;;;28.90;40.50;;;;;;5052343;28;20413;-71
2023/08/31 12:17:06;;;;;;;5.17;2.13;;;27.80;42.20;;;;;;5052030;28;20429;-70
2023/08/31 12:19:33;;;;;;;4.73;2.50;;;26.70;44.20;;;;;;5052115;28;20409;-72
2023/08/31 12:21:59;;;;;;;4.23;2.10;;;25.90;46.00;;;;;;5050841;28;20453;-69
2023/08/31 12:24:25;;;;;;;1.77;1.47;;;24.90;48.60;;;;;;5052190;28;20913;-70
2023/08/31 12:26:53;;;;;;;2.23;1.43;;;24.00;51.10;;;;;;5050473;28;20417;-69
2023/08/31 12:29:19;;;;;;;2.57;1.70;;;23.30;52.30;;;;;;5052260;28;20902;-69
2023/08/31 12:31:45;;;;;;;5.23;2.13;;;22.80;54.20;;;;;;5045771;28;20441;-69
2023/08/31 12:34:10;;;;;;;2.00;1.60;;;22.20;57.10;;;;;;5046725;28;20178;-70
2023/08/31 12:36:38;;;;;;;3.77;2.30;;;22.00;62.80;;;;;;5041742;28;20183;-70
2023/08/31 12:39:06;;;;;;;3.20;1.73;;;21.70;74.40;;;;;;5051706;28;20179;-69
2023/08/31 12:41:32;;;;;;;2.13;1.47;;;21.50;91.90;;;;;;5051725;28;20457;-69
2023/08/31 12:43:58;;;;;;;4.00;2.07;;;21.80;99.90;;;;;;5050337;28;21036;-71